sensor_id;sensor_type;location;lat;lon;timestamp;P1;durP1;ratioP1;P2;durP2;ratioP2
73158;SDS011;61370;48.594;10.202;2022-07-06T00:02:22;3.38;;;2.15;;
73158;SDS011;61370;48.594;10.202;2022-07-06T00:04:48;4.30;;;2.50;;
73158;SDS011;61370;48.594;10.202;2022-07-06T00:07:14;4.93;;;2.30;;
73158;SDS011;61370;48.594;10.202;2022-07-06T00:09:41;5.57;;;2.50;;
73158;SDS011;61370;48.594;10.202;2022-07-06T00:12:08;3.70;;;2.25;;
73158;SDS011;61370;48.594;10.202;2022-07-06T00:14:34;4.68;;;2.40;;
73158;SDS011;61370;48.594;10.202;2022-07-06T00:17:01;4.35;;;2.50;;
73158;SDS011;61370;48.594;10.202;2022-07-06T00:19:28;4.28;;;2.40;;
73158;SDS011;61370;48.594;10.202;2022-07-06T00:21:54;4.55;;;2.20;;
73158;SDS011;61370;48.594;10.202;2022-07-06T00:24:21;3.80;;;2.20;;
73158;SDS011;61370;48.594;10.202;2022-07-06T00:26:47;6.10;;;2.45;;
73158;SDS011;61370;48.594;10.202;2022-07-06T00:29:13;4.90;;;2.80;;
73158;SDS011;61370;48.594;10.202;2022-07-06T00:31:40;6.18;;;2.90;;
73158;SDS011;61370;48.594;10.202;2022-07-06T00:34:07;4.80;;;2.70;;
73158;SDS011;61370;48.594;10.202;2022-07-06T00:36:33;4.85;;;2.55;;
73158;SDS011;61370;48.594;10.202;2022-07-06T00:39:00;4.38;;;2.42;;
73158;SDS011;61370;48.594;10.202;2022-07-06T00:41:26;4.07;;;2.50;;
73158;SDS011;61370;48.594;10.202;2022-07-06T00:43:53;4.38;;;2.67;;
73158;SDS011;61370;48.594;10.202;2022-07-06T00:46:28;3.70;;;2.38;;
73158;SDS011;61370;48.594;10.202;2022-07-06T00:48:57;4.75;;;2.53;;
73158;SDS011;61370;48.594;10.202;2022-07-06T00:51:34;6.15;;;2.47;;
73158;SDS011;61370;48.594;10.202;2022-07-06T00:54:03;5.65;;;2.83;;
73158;SDS011;61370;48.594;10.202;2022-07-06T00:56:31;3.75;;;2.67;;
73158;SDS011;61370;48.594;10.202;2022-07-06T00:59:02;4.63;;;2.70;;
73158;SDS011;61370;48.594;10.202;2022-07-06T01:01:28;4.78;;;3.00;;
73158;SDS011;61370;48.594;10.202;2022-07-06T01:03:55;4.85;;;2.38;;
73158;SDS011;61370;48.594;10.202;2022-07-06T01:06:21;6.07;;;2.67;;
73158;SDS011;61370;48.594;10.202;2022-07-06T01:08:48;4.78;;;2.60;;
73158;SDS011;61370;48.594;10.202;2022-07-06T01:11:15;4.38;;;2.60;;
73158;SDS011;61370;48.594;10.202;2022-07-06T01:13:42;8.57;;;2.67;;
73158;SDS011;61370;48.594;10.202;2022-07-06T01:16:09;4.25;;;2.55;;
73158;SDS011;61370;48.594;10.202;2022-07-06T01:18:35;6.18;;;2.30;;
73158;SDS011;61370;48.594;10.202;2022-07-06T01:21:12;5.45;;;2.58;;
73158;SDS011;61370;48.594;10.202;2022-07-06T01:23:43;5.47;;;2.30;;
73158;SDS011;61370;48.594;10.202;2022-07-06T01:26:18;4.28;;;2.28;;
73158;SDS011;61370;48.594;10.202;2022-07-06T01:28:49;4.68;;;2.33;;
73158;SDS011;61370;48.594;10.202;2022-07-06T01:31:21;9.73;;;2.60;;
73158;SDS011;61370;48.594;10.202;2022-07-06T01:33:51;4.57;;;2.72;;
73158;SDS011;61370;48.594;10.202;2022-07-06T01:36:18;3.40;;;2.33;;
73158;SDS011;61370;48.594;10.202;2022-07-06T01:38:46;3.90;;;2.38;;
73158;SDS011;61370;48.594;10.202;2022-07-06T01:41:17;4.00;;;2.50;;
73158;SDS011;61370;48.594;10.202;2022-07-06T01:43:44;5.47;;;2.70;;
73158;SDS011;61370;48.594;10.202;2022-07-06T01:46:11;4.18;;;2.65;;
73158;SDS011;61370;48.594;10.202;2022-07-06T01:48:38;4.22;;;2.80;;
73158;SDS011;61370;48.594;10.202;2022-07-06T01:51:04;5.47;;;3.00;;
73158;SDS011;61370;48.594;10.202;2022-07-06T01:53:32;4.18;;;2.53;;
73158;SDS011;61370;48.594;10.202;2022-07-06T01:55:59;6.65;;;2.45;;
73158;SDS011;61370;48.594;10.202;2022-07-06T01:58:27;4.32;;;2.53;;
73158;SDS011;61370;48.594;10.202;2022-07-06T02:00:53;3.67;;;2.30;;
73158;SDS011;61370;48.594;10.202;2022-07-06T02:03:20;4.45;;;2.65;;
73158;SDS011;61370;48.594;10.202;2022-07-06T02:05:46;4.47;;;2.90;;
73158;SDS011;61370;48.594;10.202;2022-07-06T02:08:13;7.03;;;2.92;;
73158;SDS011;61370;48.594;10.202;2022-07-06T02:10:39;4.10;;;2.90;;
73158;SDS011;61370;48.594;10.202;2022-07-06T02:13:07;5.72;;;2.90;;
73158;SDS011;61370;48.594;10.202;2022-07-06T02:15:33;4.57;;;2.70;;
73158;SDS011;61370;48.594;10.202;2022-07-06T02:18:00;4.93;;;2.80;;
73158;SDS011;61370;48.594;10.202;2022-07-06T02:20:26;4.05;;;2.60;;
73158;SDS011;61370;48.594;10.202;2022-07-06T02:22:52;4.47;;;2.60;;
73158;SDS011;61370;48.594;10.202;2022-07-06T02:25:19;4.32;;;2.67;;
73158;SDS011;61370;48.594;10.202;2022-07-06T02:27:46;3.80;;;2.60;;
73158;SDS011;61370;48.594;10.202;2022-07-06T02:30:13;6.32;;;3.08;;
73158;SDS011;61370;48.594;10.202;2022-07-06T02:32:39;5.65;;;2.65;;
73158;SDS011;61370;48.594;10.202;2022-07-06T02:35:06;5.30;;;2.80;;
73158;SDS011;61370;48.594;10.202;2022-07-06T02:37:32;5.28;;;2.70;;
73158;SDS011;61370;48.594;10.202;2022-07-06T02:39:59;3.60;;;2.53;;
73158;SDS011;61370;48.594;10.202;2022-07-06T02:42:26;5.60;;;2.67;;
73158;SDS011;61370;48.594;10.202;2022-07-06T02:44:53;5.57;;;2.75;;
73158;SDS011;61370;48.594;10.202;2022-07-06T02:47:20;4.43;;;2.85;;
73158;SDS011;61370;48.594;10.202;2022-07-06T02:49:47;5.28;;;2.78;;
73158;SDS011;61370;48.594;10.202;2022-07-06T02:52:14;8.85;;;3.45;;
73158;SDS011;61370;48.594;10.202;2022-07-06T02:54:40;5.57;;;2.75;;
73158;SDS011;61370;48.594;10.202;2022-07-06T02:57:07;5.28;;;2.70;;
73158;SDS011;61370;48.594;10.202;2022-07-06T02:59:33;5.43;;;2.67;;
73158;SDS011;61370;48.594;10.202;2022-07-06T03:01:59;5.55;;;2.78;;
73158;SDS011;61370;48.594;10.202;2022-07-06T03:04:26;4.07;;;2.88;;
73158;SDS011;61370;48.594;10.202;2022-07-06T03:06:52;4.47;;;2.65;;
73158;SDS011;61370;48.594;10.202;2022-07-06T03:09:19;6.47;;;2.60;;
73158;SDS011;61370;48.594;10.202;2022-07-06T03:11:45;3.80;;;2.63;;
73158;SDS011;61370;48.594;10.202;2022-07-06T03:14:12;4.68;;;2.97;;
73158;SDS011;61370;48.594;10.202;2022-07-06T03:16:42;4.88;;;2.83;;
73158;SDS011;61370;48.594;10.202;2022-07-06T03:19:09;6.13;;;2.67;;
73158;SDS011;61370;48.594;10.202;2022-07-06T03:21:35;5.32;;;2.55;;
73158;SDS011;61370;48.594;10.202;2022-07-06T03:24:03;5.65;;;3.00;;
73158;SDS011;61370;48.594;10.202;2022-07-06T03:26:30;5.35;;;3.25;;
73158;SDS011;61370;48.594;10.202;2022-07-06T03:28:57;4.45;;;3.05;;
73158;SDS011;61370;48.594;10.202;2022-07-06T03:31:23;5.22;;;3.17;;
73158;SDS011;61370;48.594;10.202;2022-07-06T03:33:50;6.25;;;3.65;;
73158;SDS011;61370;48.594;10.202;2022-07-06T03:36:18;5.68;;;3.63;;
73158;SDS011;61370;48.594;10.202;2022-07-06T03:38:44;4.03;;;2.75;;
73158;SDS011;61370;48.594;10.202;2022-07-06T03:41:11;4.93;;;3.08;;
73158;SDS011;61370;48.594;10.202;2022-07-06T03:43:37;4.30;;;2.83;;
73158;SDS011;61370;48.594;10.202;2022-07-06T03:46:04;4.07;;;3.03;;
73158;SDS011;61370;48.594;10.202;2022-07-06T03:48:31;4.93;;;2.83;;
73158;SDS011;61370;48.594;10.202;2022-07-06T03:50:57;5.47;;;3.00;;
73158;SDS011;61370;48.594;10.202;2022-07-06T03:53:24;5.60;;;3.13;;
73158;SDS011;61370;48.594;10.202;2022-07-06T03:55:50;4.38;;;2.75;;
73158;SDS011;61370;48.594;10.202;2022-07-06T03:58:37;6.13;;;3.17;;
73158;SDS011;61370;48.594;10.202;2022-07-06T04:01:03;4.60;;;3.00;;
73158;SDS011;61370;48.594;10.202;2022-07-06T04:03:29;4.53;;;2.85;;
73158;SDS011;61370;48.594;10.202;2022-07-06T04:05:56;4.45;;;2.70;;
73158;SDS011;61370;48.594;10.202;2022-07-06T04:08:23;6.07;;;3.20;;
73158;SDS011;61370;48.594;10.202;2022-07-06T04:10:54;5.85;;;2.70;;
73158;SDS011;61370;48.594;10.202;2022-07-06T04:13:21;4.03;;;2.53;;
73158;SDS011;61370;48.594;10.202;2022-07-06T04:15:48;4.40;;;2.80;;
73158;SDS011;61370;48.594;10.202;2022-07-06T04:18:15;5.78;;;2.60;;
73158;SDS011;61370;48.594;10.202;2022-07-06T04:20:47;5.57;;;2.40;;
73158;SDS011;61370;48.594;10.202;2022-07-06T04:23:13;6.10;;;2.60;;
73158;SDS011;61370;48.594;10.202;2022-07-06T04:25:43;8.55;;;2.75;;
73158;SDS011;61370;48.594;10.202;2022-07-06T04:28:10;7.00;;;2.50;;
73158;SDS011;61370;48.594;10.202;2022-07-06T04:30:37;3.85;;;2.47;;
73158;SDS011;61370;48.594;10.202;2022-07-06T04:35:35;4.75;;;2.35;;
73158;SDS011;61370;48.594;10.202;2022-07-06T04:38:01;4.15;;;2.58;;
73158;SDS011;61370;48.594;10.202;2022-07-06T04:40:27;3.58;;;2.30;;
73158;SDS011;61370;48.594;10.202;2022-07-06T04:42:59;5.13;;;2.45;;
73158;SDS011;61370;48.594;10.202;2022-07-06T04:45:26;5.85;;;2.65;;
73158;SDS011;61370;48.594;10.202;2022-07-06T04:47:53;5.25;;;2.47;;
73158;SDS011;61370;48.594;10.202;2022-07-06T04:50:20;4.50;;;2.72;;
73158;SDS011;61370;48.594;10.202;2022-07-06T04:52:47;5.90;;;2.40;;
73158;SDS011;61370;48.594;10.202;2022-07-06T04:55:14;4.60;;;2.30;;
73158;SDS011;61370;48.594;10.202;2022-07-06T04:57:41;4.05;;;2.30;;
73158;SDS011;61370;48.594;10.202;2022-07-06T05:00:08;4.32;;;2.20;;
73158;SDS011;61370;48.594;10.202;2022-07-06T05:02:35;3.95;;;2.30;;
73158;SDS011;61370;48.594;10.202;2022-07-06T05:05:02;4.57;;;2.17;;
73158;SDS011;61370;48.594;10.202;2022-07-06T05:07:29;3.92;;;2.13;;
73158;SDS011;61370;48.594;10.202;2022-07-06T05:09:58;4.38;;;2.22;;
73158;SDS011;61370;48.594;10.202;2022-07-06T05:12:25;4.20;;;2.17;;
73158;SDS011;61370;48.594;10.202;2022-07-06T05:14:51;3.67;;;2.00;;
73158;SDS011;61370;48.594;10.202;2022-07-06T05:17:19;6.40;;;2.10;;
73158;SDS011;61370;48.594;10.202;2022-07-06T05:19:46;3.70;;;1.98;;
73158;SDS011;61370;48.594;10.202;2022-07-06T05:22:14;3.50;;;2.13;;
73158;SDS011;61370;48.594;10.202;2022-07-06T05:24:41;4.80;;;2.08;;
73158;SDS011;61370;48.594;10.202;2022-07-06T05:27:07;3.13;;;1.80;;
73158;SDS011;61370;48.594;10.202;2022-07-06T05:29:34;4.63;;;1.80;;
73158;SDS011;61370;48.594;10.202;2022-07-06T05:32:00;3.78;;;2.00;;
73158;SDS011;61370;48.594;10.202;2022-07-06T05:34:28;4.95;;;1.90;;
73158;SDS011;61370;48.594;10.202;2022-07-06T05:36:54;5.70;;;1.90;;
73158;SDS011;61370;48.594;10.202;2022-07-06T05:39:21;5.55;;;2.22;;
73158;SDS011;61370;48.594;10.202;2022-07-06T05:41:49;4.70;;;2.40;;
73158;SDS011;61370;48.594;10.202;2022-07-06T05:44:17;3.63;;;2.10;;
73158;SDS011;61370;48.594;10.202;2022-07-06T05:46:43;3.22;;;1.80;;
73158;SDS011;61370;48.594;10.202;2022-07-06T05:49:10;5.07;;;2.10;;
73158;SDS011;61370;48.594;10.202;2022-07-06T05:51:55;3.90;;;1.98;;
73158;SDS011;61370;48.594;10.202;2022-07-06T05:54:21;4.80;;;2.13;;
73158;SDS011;61370;48.594;10.202;2022-07-06T05:56:50;4.70;;;1.85;;
73158;SDS011;61370;48.594;10.202;2022-07-06T05:59:17;4.78;;;2.10;;
73158;SDS011;61370;48.594;10.202;2022-07-06T06:01:44;4.15;;;2.15;;
73158;SDS011;61370;48.594;10.202;2022-07-06T06:04:14;4.95;;;1.88;;
73158;SDS011;61370;48.594;10.202;2022-07-06T06:06:42;6.00;;;1.83;;
73158;SDS011;61370;48.594;10.202;2022-07-06T06:09:10;6.43;;;2.00;;
73158;SDS011;61370;48.594;10.202;2022-07-06T06:11:38;3.33;;;1.90;;
73158;SDS011;61370;48.594;10.202;2022-07-06T06:14:04;3.83;;;1.85;;
73158;SDS011;61370;48.594;10.202;2022-07-06T06:16:32;3.92;;;1.90;;
73158;SDS011;61370;48.594;10.202;2022-07-06T06:18:59;5.45;;;2.10;;
73158;SDS011;61370;48.594;10.202;2022-07-06T06:21:25;3.75;;;1.90;;
73158;SDS011;61370;48.594;10.202;2022-07-06T06:23:52;3.90;;;2.10;;
73158;SDS011;61370;48.594;10.202;2022-07-06T06:26:18;3.67;;;1.92;;
73158;SDS011;61370;48.594;10.202;2022-07-06T06:28:45;4.25;;;1.85;;
73158;SDS011;61370;48.594;10.202;2022-07-06T06:31:14;5.57;;;2.15;;
73158;SDS011;61370;48.594;10.202;2022-07-06T06:33:41;4.45;;;2.10;;
73158;SDS011;61370;48.594;10.202;2022-07-06T06:36:09;3.40;;;1.98;;
73158;SDS011;61370;48.594;10.202;2022-07-06T06:38:38;4.47;;;2.00;;
73158;SDS011;61370;48.594;10.202;2022-07-06T06:41:07;3.97;;;2.17;;
73158;SDS011;61370;48.594;10.202;2022-07-06T06:43:34;4.18;;;2.03;;
73158;SDS011;61370;48.594;10.202;2022-07-06T06:46:10;3.33;;;1.88;;
73158;SDS011;61370;48.594;10.202;2022-07-06T06:48:39;3.50;;;1.90;;
73158;SDS011;61370;48.594;10.202;2022-07-06T06:51:06;3.80;;;2.17;;
73158;SDS011;61370;48.594;10.202;2022-07-06T06:53:34;3.60;;;2.05;;
73158;SDS011;61370;48.594;10.202;2022-07-06T06:56:00;4.60;;;1.98;;
73158;SDS011;61370;48.594;10.202;2022-07-06T06:58:27;3.63;;;1.80;;
73158;SDS011;61370;48.594;10.202;2022-07-06T07:00:54;3.75;;;1.90;;
73158;SDS011;61370;48.594;10.202;2022-07-06T07:03:21;4.85;;;2.00;;
73158;SDS011;61370;48.594;10.202;2022-07-06T07:05:47;4.93;;;2.30;;
73158;SDS011;61370;48.594;10.202;2022-07-06T07:08:15;3.15;;;1.80;;
73158;SDS011;61370;48.594;10.202;2022-07-06T07:10:41;4.57;;;1.98;;
73158;SDS011;61370;48.594;10.202;2022-07-06T07:13:07;4.82;;;1.90;;
73158;SDS011;61370;48.594;10.202;2022-07-06T07:15:34;4.28;;;2.00;;
73158;SDS011;61370;48.594;10.202;2022-07-06T07:18:01;4.13;;;2.00;;
73158;SDS011;61370;48.594;10.202;2022-07-06T07:20:27;3.38;;;2.00;;
73158;SDS011;61370;48.594;10.202;2022-07-06T07:22:57;3.97;;;1.80;;
73158;SDS011;61370;48.594;10.202;2022-07-06T07:25:23;4.95;;;2.40;;
73158;SDS011;61370;48.594;10.202;2022-07-06T07:27:49;3.53;;;2.05;;
73158;SDS011;61370;48.594;10.202;2022-07-06T07:30:16;5.45;;;2.00;;
73158;SDS011;61370;48.594;10.202;2022-07-06T07:32:43;4.40;;;1.90;;
73158;SDS011;61370;48.594;10.202;2022-07-06T07:35:11;4.13;;;1.58;;
73158;SDS011;61370;48.594;10.202;2022-07-06T07:37:37;4.28;;;2.15;;
73158;SDS011;61370;48.594;10.202;2022-07-06T07:40:05;3.75;;;2.05;;
73158;SDS011;61370;48.594;10.202;2022-07-06T07:42:36;3.95;;;2.22;;
73158;SDS011;61370;48.594;10.202;2022-07-06T07:45:07;3.97;;;2.10;;
73158;SDS011;61370;48.594;10.202;2022-07-06T07:47:34;4.95;;;1.90;;
73158;SDS011;61370;48.594;10.202;2022-07-06T07:50:03;4.10;;;2.33;;
73158;SDS011;61370;48.594;10.202;2022-07-06T07:52:34;8.60;;;2.05;;
73158;SDS011;61370;48.594;10.202;2022-07-06T07:55:01;4.68;;;2.00;;
73158;SDS011;61370;48.594;10.202;2022-07-06T07:57:28;3.53;;;1.88;;
73158;SDS011;61370;48.594;10.202;2022-07-06T07:59:55;5.55;;;2.15;;
73158;SDS011;61370;48.594;10.202;2022-07-06T08:02:21;9.85;;;2.50;;
73158;SDS011;61370;48.594;10.202;2022-07-06T08:04:48;5.93;;;2.20;;
73158;SDS011;61370;48.594;10.202;2022-07-06T08:07:14;4.65;;;1.88;;
73158;SDS011;61370;48.594;10.202;2022-07-06T08:09:41;4.60;;;2.10;;
73158;SDS011;61370;48.594;10.202;2022-07-06T08:12:08;6.18;;;2.10;;
73158;SDS011;61370;48.594;10.202;2022-07-06T08:14:36;5.05;;;2.13;;
73158;SDS011;61370;48.594;10.202;2022-07-06T08:17:03;4.25;;;2.20;;
73158;SDS011;61370;48.594;10.202;2022-07-06T08:19:30;8.02;;;2.10;;
73158;SDS011;61370;48.594;10.202;2022-07-06T08:21:57;7.45;;;1.83;;
73158;SDS011;61370;48.594;10.202;2022-07-06T08:24:24;4.30;;;2.03;;
73158;SDS011;61370;48.594;10.202;2022-07-06T08:26:50;3.40;;;2.10;;
73158;SDS011;61370;48.594;10.202;2022-07-06T08:29:17;3.38;;;2.15;;
73158;SDS011;61370;48.594;10.202;2022-07-06T08:31:43;3.40;;;1.80;;
73158;SDS011;61370;48.594;10.202;2022-07-06T08:34:09;4.88;;;1.90;;
73158;SDS011;61370;48.594;10.202;2022-07-06T08:36:36;3.80;;;1.90;;
73158;SDS011;61370;48.594;10.202;2022-07-06T08:39:03;3.38;;;1.70;;
73158;SDS011;61370;48.594;10.202;2022-07-06T08:41:29;3.95;;;1.85;;
73158;SDS011;61370;48.594;10.202;2022-07-06T08:43:56;4.72;;;2.42;;
73158;SDS011;61370;48.594;10.202;2022-07-06T08:46:22;3.83;;;2.03;;
73158;SDS011;61370;48.594;10.202;2022-07-06T08:48:49;3.55;;;1.90;;
73158;SDS011;61370;48.594;10.202;2022-07-06T08:51:16;3.72;;;2.00;;
73158;SDS011;61370;48.594;10.202;2022-07-06T08:53:43;4.05;;;2.08;;
73158;SDS011;61370;48.594;10.202;2022-07-06T08:56:11;4.05;;;1.95;;
73158;SDS011;61370;48.594;10.202;2022-07-06T08:58:41;4.90;;;1.65;;
73158;SDS011;61370;48.594;10.202;2022-07-06T09:01:08;2.40;;;1.58;;
73158;SDS011;61370;48.594;10.202;2022-07-06T09:03:35;4.07;;;1.80;;
73158;SDS011;61370;48.594;10.202;2022-07-06T09:06:02;3.55;;;1.70;;
73158;SDS011;61370;48.594;10.202;2022-07-06T09:08:32;4.00;;;1.80;;
73158;SDS011;61370;48.594;10.202;2022-07-06T09:10:59;2.92;;;1.65;;
73158;SDS011;61370;48.594;10.202;2022-07-06T09:13:25;4.47;;;1.55;;
73158;SDS011;61370;48.594;10.202;2022-07-06T09:15:52;4.28;;;1.75;;
73158;SDS011;61370;48.594;10.202;2022-07-06T09:18:20;2.75;;;1.55;;
73158;SDS011;61370;48.594;10.202;2022-07-06T09:20:47;3.95;;;1.60;;
73158;SDS011;61370;48.594;10.202;2022-07-06T09:23:15;4.45;;;1.73;;
73158;SDS011;61370;48.594;10.202;2022-07-06T09:25:46;3.28;;;1.73;;
73158;SDS011;61370;48.594;10.202;2022-07-06T09:28:14;3.50;;;1.75;;
73158;SDS011;61370;48.594;10.202;2022-07-06T09:30:40;5.25;;;1.83;;
73158;SDS011;61370;48.594;10.202;2022-07-06T09:33:08;3.40;;;1.67;;
73158;SDS011;61370;48.594;10.202;2022-07-06T09:35:36;4.43;;;2.00;;
73158;SDS011;61370;48.594;10.202;2022-07-06T09:38:07;3.47;;;1.70;;
73158;SDS011;61370;48.594;10.202;2022-07-06T09:40:37;3.05;;;1.75;;
73158;SDS011;61370;48.594;10.202;2022-07-06T09:43:15;3.95;;;1.95;;
73158;SDS011;61370;48.594;10.202;2022-07-06T09:46:06;3.55;;;1.73;;
73158;SDS011;61370;48.594;10.202;2022-07-06T09:48:31;4.00;;;1.70;;
73158;SDS011;61370;48.594;10.202;2022-07-06T09:50:59;2.92;;;1.65;;
73158;SDS011;61370;48.594;10.202;2022-07-06T09:53:28;4.70;;;1.80;;
73158;SDS011;61370;48.594;10.202;2022-07-06T09:55:56;3.38;;;1.63;;
73158;SDS011;61370;48.594;10.202;2022-07-06T09:58:24;3.70;;;1.75;;
73158;SDS011;61370;48.594;10.202;2022-07-06T10:00:50;4.75;;;1.73;;
73158;SDS011;61370;48.594;10.202;2022-07-06T10:06:09;4.05;;;1.70;;
73158;SDS011;61370;48.594;10.202;2022-07-06T10:08:35;3.97;;;1.63;;
73158;SDS011;61370;48.594;10.202;2022-07-06T10:11:02;3.45;;;1.67;;
73158;SDS011;61370;48.594;10.202;2022-07-06T10:13:29;4.00;;;1.85;;
73158;SDS011;61370;48.594;10.202;2022-07-06T10:15:56;3.60;;;1.52;;
73158;SDS011;61370;48.594;10.202;2022-07-06T10:18:23;5.07;;;1.95;;
73158;SDS011;61370;48.594;10.202;2022-07-06T10:20:50;3.58;;;1.65;;
73158;SDS011;61370;48.594;10.202;2022-07-06T10:23:17;4.75;;;1.60;;
73158;SDS011;61370;48.594;10.202;2022-07-06T10:25:44;3.72;;;1.50;;
73158;SDS011;61370;48.594;10.202;2022-07-06T10:28:10;3.50;;;1.70;;
73158;SDS011;61370;48.594;10.202;2022-07-06T10:30:41;3.67;;;1.80;;
73158;SDS011;61370;48.594;10.202;2022-07-06T10:33:08;3.28;;;1.50;;
73158;SDS011;61370;48.594;10.202;2022-07-06T10:35:35;3.60;;;1.65;;
73158;SDS011;61370;48.594;10.202;2022-07-06T10:38:09;3.22;;;1.50;;
73158;SDS011;61370;48.594;10.202;2022-07-06T10:40:40;4.80;;;1.73;;
73158;SDS011;61370;48.594;10.202;2022-07-06T10:46:06;4.32;;;1.63;;
73158;SDS011;61370;48.594;10.202;2022-07-06T10:48:38;4.38;;;1.75;;
73158;SDS011;61370;48.594;10.202;2022-07-06T10:51:06;3.30;;;1.60;;
73158;SDS011;61370;48.594;10.202;2022-07-06T10:53:35;3.90;;;1.60;;
73158;SDS011;61370;48.594;10.202;2022-07-06T10:56:05;3.65;;;1.80;;
73158;SDS011;61370;48.594;10.202;2022-07-06T10:58:39;3.70;;;1.80;;
73158;SDS011;61370;48.594;10.202;2022-07-06T11:01:30;4.93;;;1.70;;
73158;SDS011;61370;48.594;10.202;2022-07-06T11:07:08;2.67;;;1.73;;
73158;SDS011;61370;48.594;10.202;2022-07-06T11:09:55;3.03;;;1.70;;
73158;SDS011;61370;48.594;10.202;2022-07-06T11:12:23;3.72;;;1.70;;
73158;SDS011;61370;48.594;10.202;2022-07-06T11:14:51;3.58;;;1.60;;
73158;SDS011;61370;48.594;10.202;2022-07-06T11:17:24;5.15;;;1.98;;
73158;SDS011;61370;48.594;10.202;2022-07-06T11:19:55;4.25;;;1.70;;
73158;SDS011;61370;48.594;10.202;2022-07-06T11:22:23;3.47;;;1.77;;
73158;SDS011;61370;48.594;10.202;2022-07-06T11:24:50;2.78;;;1.70;;
73158;SDS011;61370;48.594;10.202;2022-07-06T11:27:18;3.38;;;1.88;;
73158;SDS011;61370;48.594;10.202;2022-07-06T11:29:45;4.00;;;1.70;;
73158;SDS011;61370;48.594;10.202;2022-07-06T11:32:12;3.17;;;1.77;;
73158;SDS011;61370;48.594;10.202;2022-07-06T11:34:41;4.45;;;1.90;;
73158;SDS011;61370;48.594;10.202;2022-07-06T11:37:14;3.40;;;1.80;;
73158;SDS011;61370;48.594;10.202;2022-07-06T11:39:42;4.60;;;1.83;;
73158;SDS011;61370;48.594;10.202;2022-07-06T11:42:10;3.80;;;1.85;;
73158;SDS011;61370;48.594;10.202;2022-07-06T11:44:37;3.80;;;1.70;;
73158;SDS011;61370;48.594;10.202;2022-07-06T11:47:05;3.83;;;1.73;;
73158;SDS011;61370;48.594;10.202;2022-07-06T11:49:33;3.45;;;1.70;;
73158;SDS011;61370;48.594;10.202;2022-07-06T11:52:11;3.63;;;1.80;;
73158;SDS011;61370;48.594;10.202;2022-07-06T11:54:39;3.03;;;1.67;;
73158;SDS011;61370;48.594;10.202;2022-07-06T11:57:09;3.95;;;1.77;;
73158;SDS011;61370;48.594;10.202;2022-07-06T11:59:38;7.47;;;4.10;;
73158;SDS011;61370;48.594;10.202;2022-07-06T12:02:14;5.95;;;3.13;;
73158;SDS011;61370;48.594;10.202;2022-07-06T12:07:09;2.67;;;1.40;;
73158;SDS011;61370;48.594;10.202;2022-07-06T12:09:40;3.28;;;1.80;;
73158;SDS011;61370;48.594;10.202;2022-07-06T12:12:08;4.22;;;2.15;;
73158;SDS011;61370;48.594;10.202;2022-07-06T12:14:36;2.80;;;1.58;;
73158;SDS011;61370;48.594;10.202;2022-07-06T12:17:07;4.47;;;1.70;;
73158;SDS011;61370;48.594;10.202;2022-07-06T12:19:37;3.05;;;1.73;;
73158;SDS011;61370;48.594;10.202;2022-07-06T12:22:05;4.60;;;1.70;;
73158;SDS011;61370;48.594;10.202;2022-07-06T12:24:33;2.63;;;1.58;;
73158;SDS011;61370;48.594;10.202;2022-07-06T12:27:12;2.95;;;1.80;;
73158;SDS011;61370;48.594;10.202;2022-07-06T12:29:39;4.82;;;2.13;;
73158;SDS011;61370;48.594;10.202;2022-07-06T12:32:06;3.58;;;1.80;;
73158;SDS011;61370;48.594;10.202;2022-07-06T12:34:39;4.47;;;1.90;;
73158;SDS011;61370;48.594;10.202;2022-07-06T12:37:07;5.65;;;2.20;;
73158;SDS011;61370;48.594;10.202;2022-07-06T12:42:16;5.35;;;2.10;;
73158;SDS011;61370;48.594;10.202;2022-07-06T12:44:44;4.75;;;1.90;;
73158;SDS011;61370;48.594;10.202;2022-07-06T12:47:21;4.80;;;2.10;;
73158;SDS011;61370;48.594;10.202;2022-07-06T12:50:11;3.33;;;1.63;;
73158;SDS011;61370;48.594;10.202;2022-07-06T12:52:37;4.45;;;1.80;;
73158;SDS011;61370;48.594;10.202;2022-07-06T12:55:05;2.97;;;1.70;;
73158;SDS011;61370;48.594;10.202;2022-07-06T12:57:44;4.68;;;1.70;;
73158;SDS011;61370;48.594;10.202;2022-07-06T13:00:12;3.67;;;1.67;;
73158;SDS011;61370;48.594;10.202;2022-07-06T13:02:39;4.03;;;1.75;;
73158;SDS011;61370;48.594;10.202;2022-07-06T13:05:06;3.95;;;1.83;;
73158;SDS011;61370;48.594;10.202;2022-07-06T13:07:35;4.45;;;1.83;;
73158;SDS011;61370;48.594;10.202;2022-07-06T13:10:03;3.78;;;1.83;;
73158;SDS011;61370;48.594;10.202;2022-07-06T13:12:31;3.83;;;1.88;;
73158;SDS011;61370;48.594;10.202;2022-07-06T13:14:57;3.83;;;1.85;;
73158;SDS011;61370;48.594;10.202;2022-07-06T13:17:24;2.88;;;1.90;;
73158;SDS011;61370;48.594;10.202;2022-07-06T13:19:50;3.83;;;2.10;;
73158;SDS011;61370;48.594;10.202;2022-07-06T13:22:17;4.20;;;1.90;;
73158;SDS011;61370;48.594;10.202;2022-07-06T13:24:43;5.28;;;1.80;;
73158;SDS011;61370;48.594;10.202;2022-07-06T13:27:10;3.45;;;1.63;;
73158;SDS011;61370;48.594;10.202;2022-07-06T13:29:37;5.93;;;2.15;;
73158;SDS011;61370;48.594;10.202;2022-07-06T13:32:04;3.40;;;1.83;;
73158;SDS011;61370;48.594;10.202;2022-07-06T13:34:33;3.83;;;1.70;;
73158;SDS011;61370;48.594;10.202;2022-07-06T13:37:01;3.03;;;1.77;;
73158;SDS011;61370;48.594;10.202;2022-07-06T13:39:28;3.75;;;1.67;;
73158;SDS011;61370;48.594;10.202;2022-07-06T13:41:56;3.20;;;1.80;;
73158;SDS011;61370;48.594;10.202;2022-07-06T13:44:23;3.92;;;2.03;;
73158;SDS011;61370;48.594;10.202;2022-07-06T13:46:50;4.25;;;1.98;;
73158;SDS011;61370;48.594;10.202;2022-07-06T13:49:17;3.00;;;1.60;;
73158;SDS011;61370;48.594;10.202;2022-07-06T13:51:47;3.75;;;1.83;;
73158;SDS011;61370;48.594;10.202;2022-07-06T13:54:14;5.18;;;1.80;;
73158;SDS011;61370;48.594;10.202;2022-07-06T13:56:41;3.83;;;1.60;;
73158;SDS011;61370;48.594;10.202;2022-07-06T13:59:10;3.35;;;1.60;;
73158;SDS011;61370;48.594;10.202;2022-07-06T14:01:40;3.83;;;1.80;;
73158;SDS011;61370;48.594;10.202;2022-07-06T14:04:09;3.17;;;1.55;;
73158;SDS011;61370;48.594;10.202;2022-07-06T14:06:36;3.78;;;1.80;;
73158;SDS011;61370;48.594;10.202;2022-07-06T14:09:02;3.20;;;1.65;;
73158;SDS011;61370;48.594;10.202;2022-07-06T14:11:30;3.55;;;1.67;;
73158;SDS011;61370;48.594;10.202;2022-07-06T14:13:57;3.60;;;1.75;;
73158;SDS011;61370;48.594;10.202;2022-07-06T14:16:24;4.03;;;1.70;;
73158;SDS011;61370;48.594;10.202;2022-07-06T14:18:50;3.58;;;1.75;;
73158;SDS011;61370;48.594;10.202;2022-07-06T14:21:17;3.30;;;1.60;;
73158;SDS011;61370;48.594;10.202;2022-07-06T14:23:53;3.95;;;2.08;;
73158;SDS011;61370;48.594;10.202;2022-07-06T14:26:20;4.68;;;2.10;;
73158;SDS011;61370;48.594;10.202;2022-07-06T14:28:48;3.55;;;1.77;;
73158;SDS011;61370;48.594;10.202;2022-07-06T14:31:18;2.70;;;1.80;;
73158;SDS011;61370;48.594;10.202;2022-07-06T14:33:45;3.30;;;1.83;;
73158;SDS011;61370;48.594;10.202;2022-07-06T14:36:12;4.50;;;1.90;;
73158;SDS011;61370;48.594;10.202;2022-07-06T14:38:39;6.20;;;2.08;;
73158;SDS011;61370;48.594;10.202;2022-07-06T14:41:05;5.13;;;2.20;;
73158;SDS011;61370;48.594;10.202;2022-07-06T14:43:32;4.72;;;2.55;;
73158;SDS011;61370;48.594;10.202;2022-07-06T14:45:58;7.90;;;2.70;;
73158;SDS011;61370;48.594;10.202;2022-07-06T14:48:25;4.63;;;2.22;;
73158;SDS011;61370;48.594;10.202;2022-07-06T14:50:51;5.68;;;2.60;;
73158;SDS011;61370;48.594;10.202;2022-07-06T14:53:18;5.28;;;2.90;;
73158;SDS011;61370;48.594;10.202;2022-07-06T14:55:46;5.00;;;2.60;;